sensor_id;sensor_type;location;lat;lon;timestamp;pressure;altitude;pressure_sealevel;temperature;humidity
20628;BME280;10473;42.734;24.258;2023-05-10T00:01:58;92184.53;;;9.07;84.47
20628;BME280;10473;42.734;24.258;2023-05-10T00:04:25;92181.66;;;9.15;84.97
20628;BME280;10473;42.734;24.258;2023-05-10T00:06:55;92180.47;;;9.32;84.43
20628;BME280;10473;42.734;24.258;2023-05-10T00:09:22;92179.34;;;9.33;83.71
20628;BME280;10473;42.734;24.258;2023-05-10T00:11:50;92172.00;;;9.23;84.78
20628;BME280;10473;42.734;24.258;2023-05-10T00:14:17;92179.63;;;9.47;84.43
20628;BME280;10473;42.734;24.258;2023-05-10T00:16:45;92174.91;;;9.59;83.62
20628;BME280;10473;42.734;24.258;2023-05-10T00:19:13;92178.88;;;9.69;83.04
20628;BME280;10473;42.734;24.258;2023-05-10T00:21:41;92178.66;;;9.77;82.70
20628;BME280;10473;42.734;24.258;2023-05-10T00:24:10;92178.41;;;9.86;82.27
20628;BME280;10473;42.734;24.258;2023-05-10T00:26:37;92177.00;;;9.92;82.04
20628;BME280;10473;42.734;24.258;2023-05-10T00:29:05;92165.00;;;9.98;81.64
20628;BME280;10473;42.734;24.258;2023-05-10T00:31:33;92182.13;;;10.04;80.66
20628;BME280;10473;42.734;24.258;2023-05-10T00:34:00;92166.78;;;9.90;81.03
20628;BME280;10473;42.734;24.258;2023-05-10T00:36:28;92167.81;;;9.86;81.58
20628;BME280;10473;42.734;24.258;2023-05-10T00:38:57;92168.34;;;9.95;81.37
20628;BME280;10473;42.734;24.258;2023-05-10T00:41:26;92158.88;;;9.94;80.63
20628;BME280;10473;42.734;24.258;2023-05-10T00:43:54;92168.69;;;9.93;80.79
20628;BME280;10473;42.734;24.258;2023-05-10T00:46:23;92167.72;;;9.79;81.16
20628;BME280;10473;42.734;24.258;2023-05-10T00:48:51;92165.94;;;9.64;82.12
20628;BME280;10473;42.734;24.258;2023-05-10T00:51:19;92168.06;;;9.55;81.09
20628;BME280;10473;42.734;24.258;2023-05-10T00:53:48;92161.09;;;9.47;81.51
20628;BME280;10473;42.734;24.258;2023-05-10T00:56:17;92166.56;;;9.35;81.36
20628;BME280;10473;42.734;24.258;2023-05-10T00:58:48;92159.59;;;9.27;81.87
20628;BME280;10473;42.734;24.258;2023-05-10T01:01:15;92165.13;;;9.18;82.29
20628;BME280;10473;42.734;24.258;2023-05-10T01:03:43;92165.94;;;9.22;82.21
20628;BME280;10473;42.734;24.258;2023-05-10T01:06:11;92158.88;;;9.07;82.21
20628;BME280;10473;42.734;24.258;2023-05-10T01:08:40;92160.19;;;8.98;82.47
20628;BME280;10473;42.734;24.258;2023-05-10T01:11:08;92161.97;;;8.94;82.90
20628;BME280;10473;42.734;24.258;2023-05-10T01:13:38;92159.09;;;8.99;82.74
20628;BME280;10473;42.734;24.258;2023-05-10T01:16:08;92160.00;;;8.87;83.26
20628;BME280;10473;42.734;24.258;2023-05-10T01:18:39;92161.72;;;8.80;83.81
20628;BME280;10473;42.734;24.258;2023-05-10T01:21:15;92153.66;;;8.73;83.83
20628;BME280;10473;42.734;24.258;2023-05-10T01:24:24;92157.69;;;8.67;84.50
20628;BME280;10473;42.734;24.258;2023-05-10T01:27:16;92152.47;;;8.70;84.69
20628;BME280;10473;42.734;24.258;2023-05-10T01:30:01;92160.16;;;8.41;85.47
20628;BME280;10473;42.734;24.258;2023-05-10T01:32:40;92159.09;;;8.45;85.21
20628;BME280;10473;42.734;24.258;2023-05-10T01:35:16;92154.88;;;8.41;84.76
20628;BME280;10473;42.734;24.258;2023-05-10T01:37:55;92162.47;;;8.27;83.85
20628;BME280;10473;42.734;24.258;2023-05-10T01:40:30;92162.53;;;8.15;83.39
20628;BME280;10473;42.734;24.258;2023-05-10T01:43:02;92164.44;;;8.14;83.27
20628;BME280;10473;42.734;24.258;2023-05-10T01:45:36;92168.09;;;7.79;83.19
20628;BME280;10473;42.734;24.258;2023-05-10T01:48:09;92169.97;;;7.63;83.13
20628;BME280;10473;42.734;24.258;2023-05-10T01:50:39;92165.56;;;7.51;82.87
20628;BME280;10473;42.734;24.258;2023-05-10T01:53:10;92169.22;;;7.47;81.70
20628;BME280;10473;42.734;24.258;2023-05-10T01:55:43;92167.25;;;7.44;81.34
20628;BME280;10473;42.734;24.258;2023-05-10T01:58:15;92167.91;;;7.41;80.26
20628;BME280;10473;42.734;24.258;2023-05-10T02:00:45;92168.19;;;7.51;80.68
20628;BME280;10473;42.734;24.258;2023-05-10T02:03:16;92169.72;;;7.68;81.52
20628;BME280;10473;42.734;24.258;2023-05-10T02:05:46;92165.13;;;7.65;81.31
20628;BME280;10473;42.734;24.258;2023-05-10T02:08:16;92174.09;;;7.76;81.81
20628;BME280;10473;42.734;24.258;2023-05-10T02:10:45;92160.72;;;7.84;80.51
20628;BME280;10473;42.734;24.258;2023-05-10T02:13:16;92180.53;;;7.94;80.23
20628;BME280;10473;42.734;24.258;2023-05-10T02:15:46;92175.00;;;7.99;79.85
20628;BME280;10473;42.734;24.258;2023-05-10T02:18:17;92177.09;;;8.09;77.73
20628;BME280;10473;42.734;24.258;2023-05-10T02:20:46;92185.53;;;7.99;76.48
20628;BME280;10473;42.734;24.258;2023-05-10T02:23:17;92190.06;;;7.83;75.10
20628;BME280;10473;42.734;24.258;2023-05-10T02:25:46;92189.66;;;7.81;75.28
20628;BME280;10473;42.734;24.258;2023-05-10T02:28:16;92180.97;;;7.80;75.10
20628;BME280;10473;42.734;24.258;2023-05-10T02:30:44;92197.03;;;7.60;74.48
20628;BME280;10473;42.734;24.258;2023-05-10T02:33:14;92189.47;;;7.74;74.11
20628;BME280;10473;42.734;24.258;2023-05-10T02:35:43;92192.69;;;7.83;74.75
20628;BME280;10473;42.734;24.258;2023-05-10T02:38:13;92193.03;;;7.81;74.89
20628;BME280;10473;42.734;24.258;2023-05-10T02:40:43;92187.16;;;7.88;75.28
20628;BME280;10473;42.734;24.258;2023-05-10T02:43:13;92186.50;;;7.91;73.96
20628;BME280;10473;42.734;24.258;2023-05-10T02:45:42;92183.16;;;7.94;73.18
20628;BME280;10473;42.734;24.258;2023-05-10T02:48:11;92172.19;;;7.92;74.83
20628;BME280;10473;42.734;24.258;2023-05-10T02:50:43;92181.31;;;7.94;75.48
20628;BME280;10473;42.734;24.258;2023-05-10T02:53:15;92178.47;;;8.03;76.05
20628;BME280;10473;42.734;24.258;2023-05-10T02:55:45;92175.69;;;7.96;76.22
20628;BME280;10473;42.734;24.258;2023-05-10T02:58:16;92172.78;;;8.01;76.44
20628;BME280;10473;42.734;24.258;2023-05-10T03:00:45;92175.91;;;8.06;75.31
20628;BME280;10473;42.734;24.258;2023-05-10T03:03:13;92189.72;;;8.00;75.78
20628;BME280;10473;42.734;24.258;2023-05-10T03:05:42;92185.34;;;8.07;75.45
20628;BME280;10473;42.734;24.258;2023-05-10T03:08:10;92184.75;;;8.14;75.07
20628;BME280;10473;42.734;24.258;2023-05-10T03:10:44;92187.66;;;8.09;74.18
20628;BME280;10473;42.734;24.258;2023-05-10T03:13:28;92189.03;;;8.03;75.13
20628;BME280;10473;42.734;24.258;2023-05-10T03:16:01;92190.63;;;8.07;75.03
20628;BME280;10473;42.734;24.258;2023-05-10T03:18:37;92185.97;;;8.01;73.81
20628;BME280;10473;42.734;24.258;2023-05-10T03:21:13;92178.91;;;8.05;74.45
20628;BME280;10473;42.734;24.258;2023-05-10T03:23:46;92182.56;;;8.16;74.38
20628;BME280;10473;42.734;24.258;2023-05-10T03:26:20;92176.44;;;8.12;75.08
20628;BME280;10473;42.734;24.258;2023-05-10T03:28:55;92187.00;;;8.12;73.67
20628;BME280;10473;42.734;24.258;2023-05-10T03:31:24;92183.66;;;8.15;73.18
20628;BME280;10473;42.734;24.258;2023-05-10T03:33:52;92190.25;;;8.21;72.65
20628;BME280;10473;42.734;24.258;2023-05-10T03:36:26;92190.75;;;8.11;75.21
20628;BME280;10473;42.734;24.258;2023-05-10T03:38:54;92183.66;;;8.15;75.30
20628;BME280;10473;42.734;24.258;2023-05-10T03:41:22;92197.69;;;8.19;75.32
20628;BME280;10473;42.734;24.258;2023-05-10T03:43:51;92199.16;;;8.16;75.24
20628;BME280;10473;42.734;24.258;2023-05-10T03:46:19;92200.25;;;8.15;75.53
20628;BME280;10473;42.734;24.258;2023-05-10T03:48:47;92189.38;;;8.17;75.84
20628;BME280;10473;42.734;24.258;2023-05-10T03:51:14;92184.59;;;8.22;75.38
20628;BME280;10473;42.734;24.258;2023-05-10T03:53:43;92191.31;;;8.20;75.82
20628;BME280;10473;42.734;24.258;2023-05-10T03:56:11;92199.75;;;8.25;75.91
20628;BME280;10473;42.734;24.258;2023-05-10T03:58:39;92193.88;;;8.32;75.97
20628;BME280;10473;42.734;24.258;2023-05-10T04:01:06;92189.72;;;8.31;76.13
20628;BME280;10473;42.734;24.258;2023-05-10T04:03:34;92190.88;;;8.18;76.00
20628;BME280;10473;42.734;24.258;2023-05-10T04:06:02;92195.16;;;8.07;76.03
20628;BME280;10473;42.734;24.258;2023-05-10T04:08:31;92201.44;;;8.18;76.19
20628;BME280;10473;42.734;24.258;2023-05-10T04:11:06;92200.25;;;8.00;75.91
20628;BME280;10473;42.734;24.258;2023-05-10T04:13:34;92194.31;;;8.03;76.11
20628;BME280;10473;42.734;24.258;2023-05-10T04:16:03;92189.38;;;8.17;76.22
20628;BME280;10473;42.734;24.258;2023-05-10T04:18:31;92195.84;;;8.04;76.35
20628;BME280;10473;42.734;24.258;2023-05-10T04:20:59;92196.94;;;8.03;77.02
20628;BME280;10473;42.734;24.258;2023-05-10T04:23:27;92195.84;;;8.19;76.39
20628;BME280;10473;42.734;24.258;2023-05-10T04:25:59;92202.97;;;8.19;76.48
20628;BME280;10473;42.734;24.258;2023-05-10T04:28:29;92193.38;;;8.26;76.20
20628;BME280;10473;42.734;24.258;2023-05-10T04:31:01;92190.41;;;8.28;76.00
20628;BME280;10473;42.734;24.258;2023-05-10T04:33:28;92192.00;;;8.17;76.13
20628;BME280;10473;42.734;24.258;2023-05-10T04:35:56;92199.31;;;7.92;76.44
20628;BME280;10473;42.734;24.258;2023-05-10T04:38:24;92193.94;;;8.20;76.84
20628;BME280;10473;42.734;24.258;2023-05-10T04:40:52;92195.75;;;8.31;76.61
20628;BME280;10473;42.734;24.258;2023-05-10T04:43:19;92189.28;;;8.29;76.80
20628;BME280;10473;42.734;24.258;2023-05-10T04:45:48;92193.34;;;8.42;76.56
20628;BME280;10473;42.734;24.258;2023-05-10T04:48:16;92187.94;;;8.54;75.63
20628;BME280;10473;42.734;24.258;2023-05-10T04:50:44;92177.59;;;8.45;75.42
20628;BME280;10473;42.734;24.258;2023-05-10T04:53:11;92195.22;;;8.41;74.70
20628;BME280;10473;42.734;24.258;2023-05-10T04:55:40;92199.31;;;8.39;70.25
20628;BME280;10473;42.734;24.258;2023-05-10T04:58:08;92195.06;;;8.50;70.70
20628;BME280;10473;42.734;24.258;2023-05-10T05:00:35;92206.59;;;8.61;71.44
20628;BME280;10473;42.734;24.258;2023-05-10T05:03:05;92208.13;;;8.62;71.92
20628;BME280;10473;42.734;24.258;2023-05-10T05:05:32;92208.53;;;8.64;70.68
20628;BME280;10473;42.734;24.258;2023-05-10T05:08:00;92214.00;;;8.71;69.25
20628;BME280;10473;42.734;24.258;2023-05-10T05:10:30;92213.47;;;8.65;69.17
20628;BME280;10473;42.734;24.258;2023-05-10T05:13:02;92212.72;;;8.65;67.84
20628;BME280;10473;42.734;24.258;2023-05-10T05:15:30;92216.97;;;8.35;67.01
20628;BME280;10473;42.734;24.258;2023-05-10T05:17:57;92220.09;;;8.40;68.52
20628;BME280;10473;42.734;24.258;2023-05-10T05:20:27;92218.63;;;8.43;67.50
20628;BME280;10473;42.734;24.258;2023-05-10T05:22:54;92201.41;;;8.49;68.91
20628;BME280;10473;42.734;24.258;2023-05-10T05:25:22;92213.88;;;8.33;67.26
20628;BME280;10473;42.734;24.258;2023-05-10T05:27:50;92206.63;;;8.45;68.60
20628;BME280;10473;42.734;24.258;2023-05-10T05:30:17;92206.53;;;8.57;69.00
20628;BME280;10473;42.734;24.258;2023-05-10T05:32:45;92207.72;;;8.60;69.00
20628;BME280;10473;42.734;24.258;2023-05-10T05:35:13;92208.69;;;8.71;68.49
20628;BME280;10473;42.734;24.258;2023-05-10T05:37:42;92211.91;;;8.80;69.19
20628;BME280;10473;42.734;24.258;2023-05-10T05:40:12;92214.00;;;8.90;68.38
20628;BME280;10473;42.734;24.258;2023-05-10T05:42:40;92211.50;;;8.97;68.41
20628;BME280;10473;42.734;24.258;2023-05-10T05:45:08;92227.34;;;8.78;67.54
20628;BME280;10473;42.734;24.258;2023-05-10T05:47:39;92227.56;;;8.88;66.63
20628;BME280;10473;42.734;24.258;2023-05-10T05:50:07;92227.06;;;8.83;66.53
20628;BME280;10473;42.734;24.258;2023-05-10T05:52:35;92234.31;;;8.86;67.11
20628;BME280;10473;42.734;24.258;2023-05-10T05:55:04;92227.00;;;8.79;64.91
20628;BME280;10473;42.734;24.258;2023-05-10T05:57:32;92238.44;;;8.68;64.15
20628;BME280;10473;42.734;24.258;2023-05-10T06:00:00;92234.47;;;8.43;62.51
20628;BME280;10473;42.734;24.258;2023-05-10T06:02:38;92235.34;;;8.47;64.07
20628;BME280;10473;42.734;24.258;2023-05-10T06:05:07;92234.75;;;8.38;63.82
20628;BME280;10473;42.734;24.258;2023-05-10T06:07:35;92232.22;;;8.26;63.22
20628;BME280;10473;42.734;24.258;2023-05-10T06:10:05;92232.69;;;8.16;63.82
20628;BME280;10473;42.734;24.258;2023-05-10T06:12:33;92240.50;;;8.12;64.79
20628;BME280;10473;42.734;24.258;2023-05-10T06:15:00;92243.16;;;7.97;62.61
20628;BME280;10473;42.734;24.258;2023-05-10T06:17:28;92241.63;;;7.96;63.25
20628;BME280;10473;42.734;24.258;2023-05-10T06:19:56;92236.13;;;8.01;63.60
20628;BME280;10473;42.734;24.258;2023-05-10T06:22:24;92237.38;;;8.07;62.88
20628;BME280;10473;42.734;24.258;2023-05-10T06:24:51;92240.50;;;8.12;63.31
20628;BME280;10473;42.734;24.258;2023-05-10T06:27:24;92248.09;;;8.14;62.50
20628;BME280;10473;42.734;24.258;2023-05-10T06:29:52;92251.19;;;8.16;62.23
20628;BME280;10473;42.734;24.258;2023-05-10T06:32:19;92249.06;;;8.21;61.79
20628;BME280;10473;42.734;24.258;2023-05-10T06:34:47;92246.50;;;8.09;62.09
20628;BME280;10473;42.734;24.258;2023-05-10T06:37:15;92251.84;;;8.13;61.80
20628;BME280;10473;42.734;24.258;2023-05-10T06:39:42;92252.81;;;8.20;62.35
20628;BME280;10473;42.734;24.258;2023-05-10T06:42:10;92255.34;;;8.17;61.78
20628;BME280;10473;42.734;24.258;2023-05-10T06:44:39;92260.13;;;8.27;60.88
20628;BME280;10473;42.734;24.258;2023-05-10T06:47:07;92243.03;;;8.21;61.85
20628;BME280;10473;42.734;24.258;2023-05-10T06:49:34;92258.09;;;8.20;58.82
20628;BME280;10473;42.734;24.258;2023-05-10T06:52:03;92256.22;;;8.21;59.97
20628;BME280;10473;42.734;24.258;2023-05-10T06:54:31;92250.41;;;8.15;59.71
20628;BME280;10473;42.734;24.258;2023-05-10T06:56:59;92247.53;;;8.20;60.77
20628;BME280;10473;42.734;24.258;2023-05-10T06:59:26;92250.25;;;8.24;60.84
20628;BME280;10473;42.734;24.258;2023-05-10T07:01:55;92242.00;;;8.41;60.99
20628;BME280;10473;42.734;24.258;2023-05-10T07:04:23;92248.94;;;8.49;59.68
20628;BME280;10473;42.734;24.258;2023-05-10T07:06:51;92251.84;;;8.44;59.27
20628;BME280;10473;42.734;24.258;2023-05-10T07:09:19;92244.72;;;8.44;59.28
20628;BME280;10473;42.734;24.258;2023-05-10T07:11:47;92241.47;;;8.51;59.96
20628;BME280;10473;42.734;24.258;2023-05-10T07:14:14;92244.31;;;8.61;59.65
20628;BME280;10473;42.734;24.258;2023-05-10T07:16:42;92247.13;;;8.68;59.84
20628;BME280;10473;42.734;24.258;2023-05-10T07:19:11;92253.06;;;8.81;60.65
20628;BME280;10473;42.734;24.258;2023-05-10T07:21:39;92254.19;;;8.80;60.97
20628;BME280;10473;42.734;24.258;2023-05-10T07:24:09;92251.69;;;8.87;59.47
20628;BME280;10473;42.734;24.258;2023-05-10T07:26:37;92250.56;;;8.88;58.75
20628;BME280;10473;42.734;24.258;2023-05-10T07:29:04;92249.88;;;8.91;59.39
20628;BME280;10473;42.734;24.258;2023-05-10T07:31:32;92253.47;;;8.83;58.69
20628;BME280;10473;42.734;24.258;2023-05-10T07:34:00;92254.47;;;8.94;58.20
20628;BME280;10473;42.734;24.258;2023-05-10T07:36:29;92250.47;;;9.00;59.27
20628;BME280;10473;42.734;24.258;2023-05-10T07:38:57;92251.16;;;9.16;59.88
20628;BME280;10473;42.734;24.258;2023-05-10T07:41:25;92251.44;;;9.11;56.94
20628;BME280;10473;42.734;24.258;2023-05-10T07:43:53;92257.13;;;9.13;57.47
20628;BME280;10473;42.734;24.258;2023-05-10T07:46:21;92255.56;;;9.27;58.74
20628;BME280;10473;42.734;24.258;2023-05-10T07:48:48;92259.94;;;9.39;58.98
20628;BME280;10473;42.734;24.258;2023-05-10T07:51:16;92260.50;;;9.29;57.60
20628;BME280;10473;42.734;24.258;2023-05-10T07:53:45;92257.03;;;9.25;58.68
20628;BME280;10473;42.734;24.258;2023-05-10T07:56:23;92258.94;;;9.28;56.93
20628;BME280;10473;42.734;24.258;2023-05-10T07:58:54;92263.97;;;9.14;57.80
20628;BME280;10473;42.734;24.258;2023-05-10T08:01:22;92267.28;;;9.11;59.06
20628;BME280;10473;42.734;24.258;2023-05-10T08:03:50;92258.31;;;9.15;58.41
20628;BME280;10473;42.734;24.258;2023-05-10T08:06:19;92254.31;;;9.21;59.13
20628;BME280;10473;42.734;24.258;2023-05-10T08:08:49;92257.50;;;9.30;59.61
20628;BME280;10473;42.734;24.258;2023-05-10T08:11:17;92263.06;;;9.25;57.21
20628;BME280;10473;42.734;24.258;2023-05-10T08:13:47;92272.25;;;9.12;57.01
20628;BME280;10473;42.734;24.258;2023-05-10T08:16:15;92270.44;;;9.16;58.05
20628;BME280;10473;42.734;24.258;2023-05-10T08:18:43;92275.47;;;9.21;58.17
20628;BME280;10473;42.734;24.258;2023-05-10T08:21:11;92274.13;;;9.31;58.01
20628;BME280;10473;42.734;24.258;2023-05-10T08:23:39;92272.78;;;9.40;59.38
20628;BME280;10473;42.734;24.258;2023-05-10T08:26:09;92279.75;;;9.48;59.24
20628;BME280;10473;42.734;24.258;2023-05-10T08:28:37;92284.16;;;9.60;59.71
20628;BME280;10473;42.734;24.258;2023-05-10T08:31:05;92274.88;;;9.69;60.04
20628;BME280;10473;42.734;24.258;2023-05-10T08:33:34;92275.94;;;9.65;58.65
20628;BME280;10473;42.734;24.258;2023-05-10T08:36:02;92273.13;;;9.58;58.46
20628;BME280;10473;42.734;24.258;2023-05-10T08:38:30;92272.09;;;9.62;58.73
20628;BME280;10473;42.734;24.258;2023-05-10T08:40:58;92278.97;;;9.67;59.31
20628;BME280;10473;42.734;24.258;2023-05-10T08:43:29;92271.59;;;9.76;57.38
20628;BME280;10473;42.734;24.258;2023-05-10T08:46:00;92284.88;;;9.98;58.78
20628;BME280;10473;42.734;24.258;2023-05-10T08:48:29;92275.34;;;9.94;58.55
20628;BME280;10473;42.734;24.258;2023-05-10T08:50:58;92283.84;;;9.84;57.99
20628;BME280;10473;42.734;24.258;2023-05-10T08:53:27;92284.69;;;9.88;57.51
20628;BME280;10473;42.734;24.258;2023-05-10T08:55:56;92275.09;;;9.80;58.17
20628;BME280;10473;42.734;24.258;2023-05-10T08:58:25;92277.38;;;9.81;57.04
20628;BME280;10473;42.734;24.258;2023-05-10T09:00:54;92271.56;;;9.95;58.27
20628;BME280;10473;42.734;24.258;2023-05-10T09:03:23;92273.09;;;9.96;58.49
20628;BME280;10473;42.734;24.258;2023-05-10T09:05:50;92278.53;;;10.03;57.54
20628;BME280;10473;42.734;24.258;2023-05-10T09:08:18;92277.69;;;9.99;57.01
20628;BME280;10473;42.734;24.258;2023-05-10T09:10:48;92264.13;;;10.00;58.71
20628;BME280;10473;42.734;24.258;2023-05-10T09:13:17;92270.88;;;9.98;57.24
20628;BME280;10473;42.734;24.258;2023-05-10T09:15:46;92274.16;;;10.10;57.71
20628;BME280;10473;42.734;24.258;2023-05-10T09:18:15;92259.50;;;10.16;58.30
20628;BME280;10473;42.734;24.258;2023-05-10T09:20:43;92258.97;;;10.07;56.78
20628;BME280;10473;42.734;24.258;2023-05-10T09:23:11;92271.81;;;10.28;56.42
20628;BME280;10473;42.734;24.258;2023-05-10T09:25:39;92272.34;;;10.37;56.29
20628;BME280;10473;42.734;24.258;2023-05-10T09:28:08;92272.38;;;10.40;54.96
20628;BME280;10473;42.734;24.258;2023-05-10T09:30:36;92268.56;;;10.38;56.06
20628;BME280;10473;42.734;24.258;2023-05-10T09:33:04;92265.66;;;10.46;57.01
20628;BME280;10473;42.734;24.258;2023-05-10T09:35:33;92269.59;;;10.56;56.01
20628;BME280;10473;42.734;24.258;2023-05-10T09:38:04;92266.84;;;10.75;56.45
20628;BME280;10473;42.734;24.258;2023-05-10T09:40:32;92262.59;;;10.93;57.09
20628;BME280;10473;42.734;24.258;2023-05-10T09:43:01;92262.63;;;10.96;54.52
20628;BME280;10473;42.734;24.258;2023-05-10T09:45:31;92263.50;;;11.04;55.72
20628;BME280;10473;42.734;24.258;2023-05-10T09:48:00;92260.72;;;11.23;56.50
20628;BME280;10473;42.734;24.258;2023-05-10T09:50:29;92256.94;;;11.24;55.24
20628;BME280;10473;42.734;24.258;2023-05-10T09:53:04;92242.50;;;11.21;55.06
20628;BME280;10473;42.734;24.258;2023-05-10T09:55:42;92255.50;;;11.30;55.11
20628;BME280;10473;42.734;24.258;2023-05-10T09:58:11;92259.38;;;11.36;54.18
20628;BME280;10473;42.734;24.258;2023-05-10T10:00:43;92255.59;;;11.37;54.56
20628;BME280;10473;42.734;24.258;2023-05-10T10:03:13;92250.28;;;11.37;53.20
20628;BME280;10473;42.734;24.258;2023-05-10T10:05:42;92249.72;;;11.21;54.14
20628;BME280;10473;42.734;24.258;2023-05-10T10:08:13;92245.47;;;11.16;54.58
20628;BME280;10473;42.734;24.258;2023-05-10T10:10:41;92252.06;;;11.26;53.70
20628;BME280;10473;42.734;24.258;2023-05-10T10:13:10;92243.72;;;11.27;54.28
20628;BME280;10473;42.734;24.258;2023-05-10T10:15:38;92239.22;;;11.31;54.71
20628;BME280;10473;42.734;24.258;2023-05-10T10:18:06;92249.63;;;11.43;55.08
20628;BME280;10473;42.734;24.258;2023-05-10T10:20:37;92245.22;;;11.58;53.66
20628;BME280;10473;42.734;24.258;2023-05-10T10:23:04;92252.72;;;11.82;53.95
20628;BME280;10473;42.734;24.258;2023-05-10T10:25:33;92248.19;;;11.82;53.26
20628;BME280;10473;42.734;24.258;2023-05-10T10:28:10;92243.72;;;11.90;54.83
20628;BME280;10473;42.734;24.258;2023-05-10T10:30:47;92246.28;;;11.83;55.71
20628;BME280;10473;42.734;24.258;2023-05-10T10:33:33;92241.63;;;11.73;54.72
20628;BME280;10473;42.734;24.258;2023-05-10T10:36:04;92235.81;;;11.60;54.32
20628;BME280;10473;42.734;24.258;2023-05-10T10:41:31;92237.91;;;11.48;54.34
20628;BME280;10473;42.734;24.258;2023-05-10T10:44:24;92243.59;;;11.50;54.01
20628;BME280;10473;42.734;24.258;2023-05-10T10:46:59;92246.13;;;11.36;54.42
20628;BME280;10473;42.734;24.258;2023-05-10T10:49:27;92228.00;;;11.12;54.96
20628;BME280;10473;42.734;24.258;2023-05-10T10:52:24;92245.13;;;11.18;55.53
20628;BME280;10473;42.734;24.258;2023-05-10T10:55:00;92241.16;;;11.05;56.14
20628;BME280;10473;42.734;24.258;2023-05-10T10:57:32;92246.88;;;11.07;57.63
20628;BME280;10473;42.734;24.258;2023-05-10T11:00:27;92242.16;;;10.93;57.20
20628;BME280;10473;42.734;24.258;2023-05-10T11:02:58;92249.34;;;10.93;56.69
20628;BME280;10473;42.734;24.258;2023-05-10T11:05:35;92244.59;;;10.79;56.63
20628;BME280;10473;42.734;24.258;2023-05-10T11:08:19;92239.75;;;10.85;58.35
20628;BME280;10473;42.734;24.258;2023-05-10T11:10:53;92235.25;;;10.89;57.56
20628;BME280;10473;42.734;24.258;2023-05-10T11:13:29;92232.25;;;10.90;57.49
20628;BME280;10473;42.734;24.258;2023-05-10T11:15:58;92234.25;;;10.97;57.53
20628;BME280;10473;42.734;24.258;2023-05-10T11:18:27;92238.41;;;10.98;57.82
20628;BME280;10473;42.734;24.258;2023-05-10T11:20:57;92232.03;;;11.02;56.70
20628;BME280;10473;42.734;24.258;2023-05-10T11:23:30;92234.81;;;11.13;57.59
20628;BME280;10473;42.734;24.258;2023-05-10T11:25:59;92231.03;;;11.14;57.09
20628;BME280;10473;42.734;24.258;2023-05-10T11:28:29;92226.56;;;11.18;57.87
20628;BME280;10473;42.734;24.258;2023-05-10T11:30:56;92226.72;;;11.32;57.81
20628;BME280;10473;42.734;24.258;2023-05-10T11:33:24;92234.06;;;11.42;58.03
20628;BME280;10473;42.734;24.258;2023-05-10T11:35:52;92227.88;;;11.64;57.55
20628;BME280;10473;42.734;24.258;2023-05-10T11:38:20;92230.31;;;11.79;56.66
20628;BME280;10473;42.734;24.258;2023-05-10T11:40:51;92224.38;;;11.89;58.22
20628;BME280;10473;42.734;24.258;2023-05-10T11:43:23;92229.69;;;11.93;56.48
20628;BME280;10473;42.734;24.258;2023-05-10T11:45:53;92227.91;;;12.04;56.45
20628;BME280;10473;42.734;24.258;2023-05-10T11:48:22;92230.63;;;12.11;56.33
20628;BME280;10473;42.734;24.258;2023-05-10T11:50:50;92222.44;;;12.26;57.65
20628;BME280;10473;42.734;24.258;2023-05-10T11:53:19;92227.16;;;12.47;55.45
20628;BME280;10473;42.734;24.258;2023-05-10T11:55:47;92243.13;;;12.50;53.94
20628;BME280;10473;42.734;24.258;2023-05-10T11:58:15;92224.50;;;12.47;55.49
20628;BME280;10473;42.734;24.258;2023-05-10T12:00:46;92222.25;;;12.49;55.76
20628;BME280;10473;42.734;24.258;2023-05-10T12:03:15;92218.44;;;12.46;55.76
20628;BME280;10473;42.734;24.258;2023-05-10T12:05:43;92229.28;;;12.27;54.25
20628;BME280;10473;42.734;24.258;2023-05-10T12:20:16;92226.59;;;12.74;54.46
20628;BME280;10473;42.734;24.258;2023-05-10T12:22:49;92229.47;;;12.55;55.69
20628;BME280;10473;42.734;24.258;2023-05-10T12:25:17;92221.38;;;12.38;54.81
20628;BME280;10473;42.734;24.258;2023-05-10T12:27:50;92221.31;;;12.31;56.50
20628;BME280;10473;42.734;24.258;2023-05-10T12:30:22;92223.72;;;12.03;57.67
20628;BME280;10473;42.734;24.258;2023-05-10T12:32:50;92221.34;;;11.91;57.50
20628;BME280;10473;42.734;24.258;2023-05-10T12:35:19;92221.72;;;11.93;57.66
20628;BME280;10473;42.734;24.258;2023-05-10T12:37:50;92208.16;;;12.01;58.05
20628;BME280;10473;42.734;24.258;2023-05-10T12:40:18;92200.09;;;11.91;57.01
20628;BME280;10473;42.734;24.258;2023-05-10T12:42:46;92198.66;;;12.00;57.63
20628;BME280;10473;42.734;24.258;2023-05-10T12:45:14;92205.50;;;12.01;58.67
20628;BME280;10473;42.734;24.258;2023-05-10T12:47:42;92192.47;;;11.86;58.20
20628;BME280;10473;42.734;24.258;2023-05-10T12:50:10;92189.94;;;12.00;58.14
20628;BME280;10473;42.734;24.258;2023-05-10T12:52:39;92191.97;;;12.17;57.92
20628;BME280;10473;42.734;24.258;2023-05-10T12:55:07;92180.97;;;12.15;58.25
20628;BME280;10473;42.734;24.258;2023-05-10T12:57:35;92175.31;;;12.20;58.17
20628;BME280;10473;42.734;24.258;2023-05-10T13:00:03;92181.22;;;12.03;58.41
20628;BME280;10473;42.734;24.258;2023-05-10T13:02:31;92173.59;;;11.98;57.84
20628;BME280;10473;42.734;24.258;2023-05-10T13:04:59;92185.56;;;11.78;58.23
20628;BME280;10473;42.734;24.258;2023-05-10T13:07:27;92176.00;;;11.70;58.55
20628;BME280;10473;42.734;24.258;2023-05-10T13:09:56;92179.88;;;11.76;57.65
20628;BME280;10473;42.734;24.258;2023-05-10T13:12:24;92171.22;;;11.86;58.75
20628;BME280;10473;42.734;24.258;2023-05-10T13:14:51;92170.41;;;11.78;59.16
20628;BME280;10473;42.734;24.258;2023-05-10T13:17:19;92160.47;;;11.72;58.98
20628;BME280;10473;42.734;24.258;2023-05-10T13:19:47;92158.97;;;11.74;58.60
20628;BME280;10473;42.734;24.258;2023-05-10T13:22:14;92160.47;;;11.72;59.75
20628;BME280;10473;42.734;24.258;2023-05-10T13:24:42;92155.28;;;11.82;60.34
20628;BME280;10473;42.734;24.258;2023-05-10T13:27:11;92155.31;;;11.86;58.70